createdAt,value
2019-02-06T00:02:01.924Z,3.65
2019-02-06T00:04:30.714Z,3.65
2019-02-06T00:06:59.497Z,3.65
2019-02-06T00:09:28.283Z,3.63
2019-02-06T00:11:57.098Z,3.63
2019-02-06T00:14:26.127Z,3.61
2019-02-06T00:16:54.851Z,3.60
2019-02-06T00:19:23.710Z,3.60
2019-02-06T00:21:52.530Z,3.59
2019-02-06T00:24:22.008Z,3.56
2019-02-06T00:26:50.888Z,3.53
2019-02-06T00:29:19.676Z,3.51
2019-02-06T00:31:48.463Z,3.48
2019-02-06T00:34:17.407Z,3.45
2019-02-06T00:36:46.297Z,3.42
2019-02-06T00:39:15.201Z,3.41
2019-02-06T00:41:44.027Z,3.39
2019-02-06T00:44:12.864Z,3.37
2019-02-06T00:46:41.732Z,3.35
2019-02-06T00:49:10.548Z,3.35
2019-02-06T00:51:39.383Z,3.33
2019-02-06T00:54:08.204Z,3.32
2019-02-06T00:56:36.997Z,3.31
2019-02-06T00:59:05.903Z,3.30
2019-02-06T01:01:34.715Z,3.31
2019-02-06T01:04:03.527Z,3.29
2019-02-06T01:06:32.313Z,3.30
2019-02-06T01:09:01.199Z,3.30
2019-02-06T01:11:30.032Z,3.30
2019-02-06T01:13:58.859Z,3.30
2019-02-06T01:16:27.771Z,3.31
2019-02-06T01:18:56.618Z,3.30
2019-02-06T01:21:25.470Z,3.32
2019-02-06T01:23:54.308Z,3.32
2019-02-06T01:26:23.105Z,3.31
2019-02-06T01:28:51.924Z,3.31
2019-02-06T01:31:23.508Z,3.31
2019-02-06T01:33:52.299Z,3.30
2019-02-06T01:36:21.069Z,3.30
2019-02-06T01:38:49.963Z,3.30
2019-02-06T01:41:18.754Z,3.29
2019-02-06T01:43:47.549Z,3.30
2019-02-06T01:46:16.376Z,3.29
2019-02-06T01:48:45.203Z,3.29
2019-02-06T01:51:13.992Z,3.28
2019-02-06T01:53:42.819Z,3.27
2019-02-06T01:56:11.630Z,3.27
2019-02-06T01:58:40.464Z,3.27
2019-02-06T02:01:09.256Z,3.27
2019-02-06T02:03:38.069Z,3.26
2019-02-06T02:06:06.881Z,3.26
2019-02-06T02:08:37.065Z,3.25
2019-02-06T02:11:06.196Z,3.26
2019-02-06T02:13:35.145Z,3.25
2019-02-06T02:16:03.938Z,3.23
2019-02-06T02:18:32.751Z,3.24
2019-02-06T02:21:01.587Z,3.23
2019-02-06T02:23:30.431Z,3.23
2019-02-06T02:25:59.211Z,3.23
2019-02-06T02:28:27.999Z,3.22
2019-02-06T02:30:56.917Z,3.22
2019-02-06T02:33:25.727Z,3.21
2019-02-06T02:35:54.525Z,3.20
2019-02-06T02:38:23.324Z,3.19
2019-02-06T02:40:52.092Z,3.18
2019-02-06T02:43:20.886Z,3.19
2019-02-06T02:45:49.716Z,3.19
2019-02-06T02:48:18.502Z,3.19
2019-02-06T02:50:47.423Z,3.19
2019-02-06T02:53:16.232Z,3.20
2019-02-06T02:55:44.999Z,3.23
2019-02-06T02:58:13.885Z,3.25
2019-02-06T03:00:46.892Z,3.25
2019-02-06T03:03:20.877Z,3.27
2019-02-06T03:05:49.700Z,3.30
2019-02-06T03:08:18.624Z,3.34
2019-02-06T03:10:47.410Z,3.37
2019-02-06T03:13:16.210Z,3.39
2019-02-06T03:15:45.044Z,3.42
2019-02-06T03:18:13.916Z,3.45
2019-02-06T03:20:45.059Z,3.48
2019-02-06T03:23:14.895Z,3.50
2019-02-06T03:25:43.644Z,3.52
2019-02-06T03:28:12.463Z,3.52
2019-02-06T03:30:41.292Z,3.54
2019-02-06T03:33:10.117Z,3.53
2019-02-06T03:35:38.919Z,3.51
2019-02-06T03:38:07.785Z,3.51
2019-02-06T03:40:36.559Z,3.49
2019-02-06T03:43:05.346Z,3.50
2019-02-06T03:45:34.194Z,3.49
2019-02-06T03:48:03.158Z,3.50
2019-02-06T03:50:31.979Z,3.49
2019-02-06T03:53:00.799Z,3.49
2019-02-06T03:55:29.678Z,3.48
2019-02-06T03:57:58.464Z,3.48
2019-02-06T04:00:27.249Z,3.47
2019-02-06T04:02:56.030Z,3.45
2019-02-06T04:05:24.941Z,3.46
2019-02-06T04:07:53.779Z,3.46
2019-02-06T04:10:22.595Z,3.42
2019-02-06T04:12:51.389Z,3.42
2019-02-06T04:15:20.155Z,3.42
2019-02-06T04:17:49.043Z,3.44
2019-02-06T04:20:17.894Z,3.45
2019-02-06T04:22:46.669Z,3.44
2019-02-06T04:25:15.468Z,3.44
2019-02-06T04:27:44.267Z,3.44
2019-02-06T04:30:13.257Z,3.43
2019-02-06T04:32:42.214Z,3.42
2019-02-06T04:35:11.569Z,3.39
2019-02-06T04:37:40.388Z,3.38
2019-02-06T04:40:12.218Z,3.35
2019-02-06T04:42:41.030Z,3.33
2019-02-06T04:45:10.270Z,3.30
2019-02-06T04:47:38.892Z,3.28
2019-02-06T04:50:08.395Z,3.25
2019-02-06T04:52:37.291Z,3.23
2019-02-06T04:55:06.713Z,3.18
2019-02-06T04:57:35.528Z,3.16
2019-02-06T05:00:07.850Z,3.12
2019-02-06T05:02:36.699Z,3.10
2019-02-06T05:05:05.822Z,3.07
2019-02-06T05:07:34.661Z,3.06
2019-02-06T05:10:03.460Z,3.03
2019-02-06T05:12:32.337Z,3.03
2019-02-06T05:15:01.110Z,3.03
2019-02-06T05:17:29.891Z,3.07
2019-02-06T05:19:58.695Z,3.09
2019-02-06T05:22:27.467Z,3.13
2019-02-06T05:24:56.286Z,3.15
2019-02-06T05:27:25.131Z,3.17
2019-02-06T05:29:53.914Z,3.18
2019-02-06T05:32:22.714Z,3.19
2019-02-06T05:34:51.571Z,3.19
2019-02-06T05:37:31.816Z,3.20
2019-02-06T05:39:49.210Z,3.20
2019-02-06T05:42:17.987Z,3.19
2019-02-06T05:44:47.621Z,3.21
2019-02-06T05:47:16.339Z,3.20
2019-02-06T05:49:45.165Z,3.20
2019-02-06T05:52:14.694Z,3.18
2019-02-06T05:54:43.477Z,3.18
2019-02-06T05:57:12.436Z,3.17
2019-02-06T05:59:41.214Z,3.17
2019-02-06T06:02:09.983Z,3.17
2019-02-06T06:04:38.770Z,3.16
2019-02-06T06:07:14.163Z,3.13
2019-02-06T06:09:43.059Z,3.14
2019-02-06T06:12:11.942Z,3.14
2019-02-06T06:14:40.741Z,3.11
2019-02-06T06:17:09.605Z,3.11
2019-02-06T06:19:38.387Z,3.09
2019-02-06T06:22:07.195Z,3.09
2019-02-06T06:24:36.000Z,3.08
2019-02-06T06:27:04.803Z,3.07
2019-02-06T06:29:33.643Z,3.07
2019-02-06T06:32:02.523Z,3.09
2019-02-06T06:34:31.401Z,3.12
2019-02-06T06:37:00.233Z,3.15
2019-02-06T06:39:29.017Z,3.22
2019-02-06T06:41:57.802Z,3.29
2019-02-06T06:44:26.570Z,3.35
2019-02-06T06:46:55.477Z,3.40
2019-02-06T06:49:24.309Z,3.44
2019-02-06T06:51:53.093Z,3.47
2019-02-06T06:54:21.917Z,3.52
2019-02-06T06:56:50.702Z,3.57
2019-02-06T06:59:19.569Z,3.61
2019-02-06T07:01:48.348Z,3.65
2019-02-06T07:04:17.142Z,3.68
2019-02-06T07:06:46.542Z,3.73
2019-02-06T07:09:14.761Z,3.74
2019-02-06T07:11:43.548Z,3.78
2019-02-06T07:14:12.383Z,3.79
2019-02-06T07:16:41.213Z,3.83
2019-02-06T07:19:09.971Z,3.86
2019-02-06T07:21:38.792Z,3.88
2019-02-06T07:24:07.648Z,3.92
2019-02-06T07:26:36.426Z,3.96
2019-02-06T07:29:05.239Z,3.97
2019-02-06T07:31:34.024Z,4.00
2019-02-06T07:34:02.841Z,4.02
2019-02-06T07:36:31.644Z,4.04
2019-02-06T07:39:00.430Z,4.08
2019-02-06T07:41:29.225Z,4.12
2019-02-06T07:43:58.068Z,4.16
2019-02-06T07:46:26.903Z,4.18
2019-02-06T07:48:55.792Z,4.20
2019-02-06T07:51:24.664Z,4.23
2019-02-06T07:53:53.606Z,4.24
2019-02-06T07:56:22.486Z,4.27
2019-02-06T07:58:51.270Z,4.29
2019-02-06T08:01:20.073Z,4.32
2019-02-06T08:03:48.892Z,4.34
2019-02-06T08:06:17.677Z,4.37
2019-02-06T08:08:46.499Z,4.38
2019-02-06T08:11:15.361Z,4.38
2019-02-06T08:13:44.086Z,4.39
2019-02-06T08:16:12.905Z,4.39
2019-02-06T08:18:41.700Z,4.39
2019-02-06T08:21:10.543Z,4.41
2019-02-06T08:23:39.339Z,4.43
2019-02-06T08:26:08.171Z,4.45
2019-02-06T08:28:37.002Z,4.46
2019-02-06T08:31:05.889Z,4.46
2019-02-06T08:33:34.672Z,4.50
2019-02-06T08:36:03.453Z,4.54
2019-02-06T08:38:32.259Z,4.56
2019-02-06T08:41:01.041Z,4.55
2019-02-06T08:43:29.880Z,4.56
2019-02-06T08:45:58.669Z,4.57
2019-02-06T08:48:27.503Z,4.61
2019-02-06T08:50:56.291Z,4.65
2019-02-06T08:53:25.069Z,4.66
2019-02-06T08:55:54.003Z,4.68
2019-02-06T08:58:22.810Z,4.68
2019-02-06T09:00:51.703Z,4.67
2019-02-06T09:03:20.512Z,4.68
2019-02-06T09:05:49.358Z,4.65
2019-02-06T09:08:18.203Z,4.64
2019-02-06T09:10:47.041Z,4.65
2019-02-06T09:13:15.873Z,4.64
2019-02-06T09:15:44.644Z,4.64
2019-02-06T09:18:13.424Z,4.63
2019-02-06T09:20:42.816Z,4.64
2019-02-06T09:23:11.620Z,4.64
2019-02-06T09:25:40.515Z,4.67
2019-02-06T09:28:12.379Z,4.67
2019-02-06T09:30:41.157Z,4.69
2019-02-06T09:33:10.102Z,4.71
2019-02-06T09:35:38.943Z,4.76
2019-02-06T09:38:07.702Z,4.83
2019-02-06T09:40:36.565Z,4.87
2019-02-06T09:43:05.355Z,4.91
2019-02-06T09:45:34.181Z,4.94
2019-02-06T09:48:02.950Z,4.96
2019-02-06T09:50:33.718Z,4.99
2019-02-06T09:53:03.094Z,5.01
2019-02-06T09:55:31.908Z,5.03
2019-02-06T09:58:00.687Z,5.04
2019-02-06T10:00:34.092Z,5.08
2019-02-06T10:03:02.886Z,5.14
2019-02-06T10:05:32.282Z,5.19
2019-02-06T10:08:01.106Z,5.28
2019-02-06T10:10:29.908Z,5.33
2019-02-06T10:12:58.776Z,5.37
2019-02-06T10:15:29.629Z,5.40
2019-02-06T10:17:59.215Z,5.41
2019-02-06T10:20:31.556Z,5.45
2019-02-06T10:23:00.351Z,5.49
2019-02-06T10:25:29.131Z,5.50
2019-02-06T10:27:57.923Z,5.49
2019-02-06T10:30:29.267Z,5.51
2019-02-06T10:32:58.055Z,5.54
2019-02-06T10:35:26.843Z,5.58
2019-02-06T10:37:55.715Z,5.64
2019-02-06T10:40:24.544Z,5.68
2019-02-06T10:42:53.455Z,5.75
2019-02-06T10:45:22.183Z,5.81
2019-02-06T10:47:51.223Z,5.84
2019-02-06T10:50:22.008Z,5.87
2019-02-06T10:52:50.795Z,5.92
2019-02-06T10:55:19.635Z,5.95
2019-02-06T10:57:48.461Z,5.98
2019-02-06T11:00:22.072Z,6.01
2019-02-06T11:02:50.919Z,6.04
2019-02-06T11:05:19.695Z,6.10
2019-02-06T11:07:48.503Z,6.12
2019-02-06T11:10:17.342Z,6.12
2019-02-06T11:12:46.194Z,6.11
2019-02-06T11:15:15.037Z,6.14
2019-02-06T11:17:43.863Z,6.18
2019-02-06T11:20:15.284Z,6.22
2019-02-06T11:22:44.175Z,6.21
2019-02-06T11:25:13.367Z,6.22
2019-02-06T11:27:42.235Z,6.25
2019-02-06T11:30:16.159Z,6.28
2019-02-06T11:32:44.975Z,6.30
2019-02-06T11:35:14.150Z,6.30
2019-02-06T11:37:42.930Z,6.30
2019-02-06T11:40:15.316Z,6.32
2019-02-06T11:42:42.892Z,6.34
2019-02-06T11:45:13.274Z,6.35
2019-02-06T11:47:42.091Z,6.37
2019-02-06T11:50:12.814Z,6.40
2019-02-06T11:52:41.614Z,6.44
2019-02-06T11:55:13.288Z,6.49
2019-02-06T11:57:42.204Z,6.53
2019-02-06T12:00:13.696Z,6.55
2019-02-06T12:02:42.524Z,6.58
2019-02-06T12:05:11.311Z,6.56
2019-02-06T12:07:40.124Z,6.61
2019-02-06T12:10:11.707Z,6.68
2019-02-06T12:12:40.575Z,6.75
2019-02-06T12:15:13.183Z,6.82
2019-02-06T12:17:42.018Z,6.85
2019-02-06T12:20:13.814Z,6.91
2019-02-06T12:22:42.690Z,6.94
2019-02-06T12:25:12.000Z,6.98
2019-02-06T12:27:40.802Z,6.99
2019-02-06T12:30:14.772Z,6.99
2019-02-06T12:32:51.978Z,7.04
2019-02-06T12:35:12.380Z,7.10
2019-02-06T12:37:41.191Z,7.15
2019-02-06T12:40:20.751Z,7.16
2019-02-06T12:42:38.902Z,7.16
2019-02-06T12:45:07.740Z,7.16
2019-02-06T12:47:36.577Z,7.16
2019-02-06T12:50:06.127Z,7.21
2019-02-06T12:52:34.894Z,7.25
2019-02-06T12:55:04.051Z,7.28
2019-02-06T12:57:37.054Z,7.31
2019-02-06T13:00:01.660Z,7.33
2019-02-06T13:02:30.547Z,7.36
2019-02-06T13:04:59.397Z,7.35
2019-02-06T13:07:28.241Z,7.38
2019-02-06T13:09:57.099Z,7.37
2019-02-06T13:12:27.374Z,7.38
2019-02-06T13:14:54.794Z,7.43
2019-02-06T13:17:23.703Z,7.48
2019-02-06T13:19:52.711Z,7.51
2019-02-06T13:22:21.524Z,7.52
2019-02-06T13:24:50.310Z,7.53
2019-02-06T13:27:19.232Z,7.53
2019-02-06T13:29:48.058Z,7.56
2019-02-06T13:32:16.930Z,7.58
2019-02-06T13:34:45.748Z,7.61
2019-02-06T13:37:14.543Z,7.66
2019-02-06T13:39:43.338Z,7.66
2019-02-06T13:42:12.137Z,7.67
2019-02-06T13:44:41.632Z,7.65
2019-02-06T13:47:09.766Z,7.66
2019-02-06T13:49:38.543Z,7.64
2019-02-06T13:52:07.383Z,7.62
2019-02-06T13:54:36.245Z,7.59
2019-02-06T13:57:05.079Z,7.60
2019-02-06T13:59:33.944Z,7.63
2019-02-06T14:02:03.451Z,7.62
2019-02-06T14:04:32.310Z,7.60
2019-02-06T14:07:01.142Z,7.60
2019-02-06T14:09:29.930Z,7.58
2019-02-06T14:11:58.720Z,7.54
2019-02-06T14:14:27.537Z,7.55
2019-02-06T14:16:56.354Z,7.53
2019-02-06T14:19:25.141Z,7.54
2019-02-06T14:21:54.063Z,7.53
2019-02-06T14:24:31.431Z,7.51
2019-02-06T14:29:17.147Z,7.46
2019-02-06T14:32:33.419Z,7.40
2019-02-06T14:37:21.691Z,7.36
2019-02-06T14:40:00.935Z,7.34
2019-02-06T14:42:40.475Z,7.34
2019-02-06T14:45:43.727Z,7.34
2019-02-06T14:48:22.669Z,7.34
2019-02-06T14:51:01.291Z,7.35
2019-02-06T14:53:43.810Z,7.39
2019-02-06T14:56:25.070Z,7.40
2019-02-06T14:59:07.005Z,7.43
2019-02-06T15:01:51.222Z,7.43
2019-02-06T15:04:40.371Z,7.44
2019-02-06T15:07:48.666Z,7.46
2019-02-06T15:10:28.328Z,7.45
2019-02-06T15:13:05.238Z,7.45
2019-02-06T15:15:43.659Z,7.43
2019-02-06T15:18:33.771Z,7.43
2019-02-06T15:22:14.751Z,7.41
2019-02-06T15:24:53.674Z,7.40
2019-02-06T15:29:38.467Z,7.40
2019-02-06T15:32:33.645Z,7.37
2019-02-06T15:35:15.499Z,7.34
2019-02-06T15:38:03.531Z,7.33
2019-02-06T15:40:41.608Z,7.33
2019-02-06T15:43:21.781Z,7.35
2019-02-06T15:47:01.746Z,7.34
2019-02-06T15:49:40.845Z,7.31
2019-02-06T15:52:19.556Z,7.33
2019-02-06T15:55:02.315Z,7.30
2019-02-06T15:57:45.134Z,7.31
2019-02-06T16:01:32.978Z,7.30
2019-02-06T16:04:27.158Z,7.29
2019-02-06T16:07:10.224Z,7.29
2019-02-06T16:09:49.991Z,7.27
2019-02-06T16:12:29.335Z,7.27
2019-02-06T16:15:06.996Z,7.25
2019-02-06T16:19:49.186Z,7.27
2019-02-06T16:22:41.035Z,7.22
2019-02-06T16:25:20.554Z,7.21
2019-02-06T16:28:01.328Z,7.23
2019-02-06T16:30:40.763Z,7.24
2019-02-06T16:33:18.663Z,7.27
2019-02-06T16:36:22.084Z,7.29
2019-02-06T16:39:02.709Z,7.29
2019-02-06T16:42:06.833Z,7.29
2019-02-06T16:44:50.468Z,7.45
2019-02-06T16:47:44.779Z,7.35
2019-02-06T16:50:20.600Z,7.35
2019-02-06T16:53:00.764Z,7.35
2019-02-06T16:57:44.420Z,7.35
2019-02-06T17:00:30.352Z,7.30
2019-02-06T17:03:11.856Z,7.29
2019-02-06T17:05:51.938Z,7.29
2019-02-06T17:08:38.591Z,7.29
2019-02-06T17:11:20.527Z,7.29
2019-02-06T17:16:19.751Z,7.32
2019-02-06T17:18:57.652Z,7.29
2019-02-06T17:22:38.868Z,7.28
2019-02-06T17:27:22.690Z,7.27
2019-02-06T17:30:02.567Z,7.22
2019-02-06T17:32:47.883Z,7.24
2019-02-06T17:36:02.551Z,7.24
2019-02-06T17:38:41.332Z,7.27
2019-02-06T17:43:34.247Z,7.29
2019-02-06T17:46:15.188Z,7.29
2019-02-06T17:48:58.732Z,7.29
2019-02-06T17:51:49.622Z,7.31
2019-02-06T17:54:34.311Z,7.33
2019-02-06T17:57:03.212Z,7.35
2019-02-06T17:59:32.008Z,7.38
2019-02-06T18:02:00.801Z,7.40
2019-02-06T18:04:37.405Z,7.42
2019-02-06T18:07:06.451Z,7.43
2019-02-06T18:09:35.262Z,7.45
2019-02-06T18:12:04.092Z,7.46
2019-02-06T18:14:32.965Z,7.47
2019-02-06T18:17:03.366Z,7.48
2019-02-06T18:19:37.386Z,7.48
2019-02-06T18:22:07.124Z,7.47
2019-02-06T18:24:35.950Z,7.50
2019-02-06T18:27:05.617Z,7.50
2019-02-06T18:29:34.515Z,7.52
2019-02-06T18:32:03.307Z,7.52
2019-02-06T18:34:32.107Z,7.54
2019-02-06T18:37:00.903Z,7.56
2019-02-06T18:39:29.735Z,7.56
2019-02-06T18:41:58.577Z,7.57
2019-02-06T18:44:27.415Z,7.60
2019-02-06T18:46:56.358Z,7.60
2019-02-06T18:49:25.268Z,7.63
2019-02-06T18:51:54.068Z,7.64
2019-02-06T18:54:22.963Z,7.65
2019-02-06T18:56:51.811Z,7.65
2019-02-06T18:59:20.612Z,7.66
2019-02-06T19:01:49.452Z,7.67
2019-02-06T19:04:20.132Z,7.67
2019-02-06T19:06:48.925Z,7.66
2019-02-06T19:09:18.764Z,7.65
2019-02-06T19:11:47.571Z,7.65
2019-02-06T19:14:16.419Z,7.65
2019-02-06T19:16:45.287Z,7.64
2019-02-06T19:19:24.822Z,7.66
2019-02-06T19:21:42.993Z,7.65
2019-02-06T19:24:11.818Z,7.65
2019-02-06T19:26:40.612Z,7.65
2019-02-06T19:29:09.402Z,7.68
2019-02-06T19:31:38.209Z,7.69
2019-02-06T19:34:07.055Z,7.69
2019-02-06T19:36:35.844Z,7.69
2019-02-06T19:39:08.234Z,7.69
2019-02-06T19:41:37.113Z,7.70
2019-02-06T19:44:05.943Z,7.69
2019-02-06T19:46:34.723Z,7.68
2019-02-06T19:49:03.524Z,7.68
2019-02-06T19:51:32.399Z,7.68
2019-02-06T19:54:01.171Z,7.68
2019-02-06T19:56:29.964Z,7.67
2019-02-06T19:58:58.847Z,7.67
2019-02-06T20:01:27.653Z,7.69
2019-02-06T20:03:56.439Z,7.72
2019-02-06T20:06:30.038Z,7.73
2019-02-06T20:09:01.889Z,7.71
2019-02-06T20:11:30.676Z,7.72
2019-02-06T20:13:59.469Z,7.72
2019-02-06T20:16:28.263Z,7.72
2019-02-06T20:18:57.051Z,7.71
2019-02-06T20:21:25.826Z,7.73
2019-02-06T20:23:54.719Z,7.71
2019-02-06T20:26:23.503Z,7.73
2019-02-06T20:28:52.316Z,7.72
2019-02-06T20:31:21.131Z,7.70
2019-02-06T20:33:49.910Z,7.69
2019-02-06T20:36:18.712Z,7.71
2019-02-06T20:38:47.598Z,7.73
2019-02-06T20:41:16.414Z,7.70
2019-02-06T20:43:45.264Z,7.72
2019-02-06T20:46:14.065Z,7.72
2019-02-06T20:48:42.923Z,7.72
2019-02-06T20:51:11.727Z,7.68
2019-02-06T20:53:40.548Z,7.68
2019-02-06T20:56:09.495Z,7.69
2019-02-06T20:58:38.287Z,7.72
2019-02-06T21:01:07.123Z,7.73
2019-02-06T21:03:35.912Z,7.74
2019-02-06T21:06:04.770Z,7.75
2019-02-06T21:08:33.606Z,7.76
2019-02-06T21:11:02.515Z,7.75
2019-02-06T21:13:33.107Z,7.76
2019-02-06T21:16:00.261Z,7.78
2019-02-06T21:18:29.139Z,7.80
2019-02-06T21:20:57.950Z,7.80
2019-02-06T21:23:26.748Z,7.79
2019-02-06T21:25:55.652Z,7.80
2019-02-06T21:28:24.450Z,7.81
2019-02-06T21:30:53.248Z,7.83
2019-02-06T21:33:22.084Z,7.83
2019-02-06T21:35:50.880Z,7.82
2019-02-06T21:38:19.663Z,7.80
2019-02-06T21:40:48.498Z,7.79
2019-02-06T21:43:17.358Z,7.81
2019-02-06T21:45:46.145Z,7.78
2019-02-06T21:48:14.987Z,7.77
2019-02-06T21:50:43.799Z,7.78
2019-02-06T21:53:12.595Z,7.77
2019-02-06T21:55:41.410Z,7.77
2019-02-06T21:58:10.252Z,7.76
2019-02-06T22:00:40.738Z,7.74
2019-02-06T22:03:10.760Z,7.73
2019-02-06T22:05:38.345Z,7.72
2019-02-06T22:08:13.914Z,7.74
2019-02-06T22:10:42.715Z,7.73
2019-02-06T22:13:11.538Z,7.72
2019-02-06T22:15:40.346Z,7.71
2019-02-06T22:18:09.203Z,7.71
2019-02-06T22:20:38.044Z,7.73
2019-02-06T22:23:06.875Z,7.72
2019-02-06T22:25:35.764Z,7.72
2019-02-06T22:28:04.655Z,7.75
2019-02-06T22:30:33.526Z,7.75
2019-02-06T22:33:02.259Z,7.75
2019-02-06T22:35:31.078Z,7.76
2019-02-06T22:37:59.871Z,7.74
2019-02-06T22:40:28.707Z,7.75
2019-02-06T22:42:57.544Z,7.75
2019-02-06T22:45:27.080Z,7.74
2019-02-06T22:47:55.869Z,7.76
2019-02-06T22:50:25.901Z,7.76
2019-02-06T22:52:54.719Z,7.77
2019-02-06T22:55:23.517Z,7.77
2019-02-06T22:57:52.372Z,7.76
2019-02-06T23:00:35.671Z,7.77
2019-02-06T23:03:04.462Z,7.75
2019-02-06T23:05:34.223Z,7.73
2019-02-06T23:08:03.115Z,7.71
2019-02-06T23:10:31.883Z,7.73
2019-02-06T23:13:00.676Z,7.73
2019-02-06T23:15:29.519Z,7.73
2019-02-06T23:17:58.306Z,7.72
2019-02-06T23:20:27.161Z,7.70
2019-02-06T23:22:56.124Z,7.70
2019-02-06T23:25:24.979Z,7.69
2019-02-06T23:27:53.798Z,7.66
2019-02-06T23:30:22.603Z,7.67
2019-02-06T23:32:52.225Z,7.68
2019-02-06T23:35:21.070Z,7.66
2019-02-06T23:37:49.872Z,7.67
2019-02-06T23:40:19.326Z,7.66
2019-02-06T23:42:48.112Z,7.67
2019-02-06T23:45:16.898Z,7.67
2019-02-06T23:47:46.274Z,7.67
2019-02-06T23:50:15.071Z,7.67
2019-02-06T23:52:43.847Z,7.68
2019-02-06T23:55:12.633Z,7.67
2019-02-06T23:57:41.451Z,7.67
